TimeAEDT,TemperatureF,Dew PointF,Humidity,Sea Level PressureIn,VisibilityMPH,Wind Direction,Wind SpeedMPH,Gust SpeedMPH,PrecipitationIn,Events,Conditions,WindDirDegrees,DateUTC
12:00 AM,72,64,68,29.94,16,SE,8.1,,,,Partly Cloudy,140,2014-01-31 13:00:00
12:00 AM,71.6,64.4,78,29.92,-9999.0,SE,8.1,-,N/A,,Clear,140,2014-01-31 13:00:00
12:30 AM,69.8,64.4,83,29.92,-9999.0,South,17.3,-,N/A,,Clear,180,2014-01-31 13:30:00
1:00 AM,71,67,85,29.95,,South,18.4,,,,,170,2014-01-31 14:00:00
1:00 AM,71.6,68.0,88,29.95,6.2,South,18.4,-,N/A,,Mostly Cloudy,170,2014-01-31 14:00:00
1:30 AM,71.6,68.0,88,29.95,6.2,South,20.7,-,N/A,,Scattered Clouds,170,2014-01-31 14:30:00
2:00 AM,71,67,85,29.94,,South,20.7,,,,,170,2014-01-31 15:00:00
2:00 AM,71.6,68.0,88,29.92,6.2,South,20.7,-,N/A,,Mostly Cloudy,170,2014-01-31 15:00:00
2:30 AM,71.6,66.2,83,29.92,6.2,South,17.3,-,N/A,,Mostly Cloudy,170,2014-01-31 15:30:00
3:00 AM,71,67,82,29.94,12,South,19.6,,,,Partly Cloudy,180,2014-01-31 16:00:00
3:00 AM,71.6,66.2,83,29.92,6.2,South,19.6,-,N/A,,Mostly Cloudy,180,2014-01-31 16:00:00
3:30 AM,71.6,66.2,83,29.92,6.2,South,19.6,-,N/A,,Scattered Clouds,180,2014-01-31 16:30:00
4:00 AM,71,66,80,29.94,,South,19.6,,,,,180,2014-01-31 17:00:00
4:00 AM,71.6,66.2,83,29.92,6.2,South,19.6,-,N/A,,Mostly Cloudy,180,2014-01-31 17:00:00
4:30 AM,71.6,66.2,83,29.92,6.2,South,19.6,-,N/A,,Mostly Cloudy,180,2014-01-31 17:30:00
5:00 AM,71,66,80,29.94,,South,18.4,,,,,180,2014-01-31 18:00:00
5:00 AM,71.6,66.2,83,29.92,6.2,South,18.4,-,N/A,,Mostly Cloudy,180,2014-01-31 18:00:00
5:30 AM,71.6,66.2,83,29.95,6.2,South,18.4,-,N/A,,Mostly Cloudy,190,2014-01-31 18:30:00
6:00 AM,71,66,80,29.95,9,South,17.3,,,,Haze,190,2014-01-31 19:00:00
6:00 AM,69.8,66.2,88,29.95,6.2,South,17.3,-,N/A,,Mostly Cloudy,190,2014-01-31 19:00:00
6:30 AM,69.8,66.2,88,29.95,6.2,South,17.3,-,N/A,,Mostly Cloudy,190,2014-01-31 19:30:00
7:00 AM,71,66,80,29.96,,South,15.0,,,,,190,2014-01-31 20:00:00
7:00 AM,69.8,66.2,88,29.95,6.2,South,15.0,-,N/A,,Mostly Cloudy,190,2014-01-31 20:00:00
7:30 AM,71.6,66.2,83,29.95,6.2,South,16.1,-,N/A,,Mostly Cloudy,190,2014-01-31 20:30:00
8:00 AM,71,66,79,29.98,,South,16.1,,,,,190,2014-01-31 21:00:00
8:00 AM,71.6,66.2,83,29.98,6.2,South,16.1,-,N/A,,Mostly Cloudy,190,2014-01-31 21:00:00
8:30 AM,71.6,66.2,83,29.98,6.2,South,12.7,-,N/A,,Mostly Cloudy,190,2014-01-31 21:30:00
9:00 AM,72,66,76,29.99,8,South,15.0,,,,Haze,190,2014-01-31 22:00:00
9:00 AM,71.6,66.2,83,29.98,6.2,South,15.0,-,N/A,,Mostly Cloudy,190,2014-01-31 22:00:00
9:30 AM,71.6,66.2,83,29.98,6.2,South,16.1,-,N/A,,Mostly Cloudy,180,2014-01-31 22:30:00
10:00 AM,73,66,72,29.98,,South,15.0,,,,,170,2014-01-31 23:00:00
10:00 AM,73.4,66.2,78,29.98,6.2,South,15.0,-,N/A,,Mostly Cloudy,170,2014-01-31 23:00:00
10:30 AM,73.4,66.2,78,29.98,6.2,South,15.0,-,N/A,,Scattered Clouds,170,2014-01-31 23:30:00
11:00 AM,74,66,69,29.99,,South,15.0,,,,,170,2014-02-01 00:00:00
11:00 AM,73.4,66.2,78,29.98,6.2,South,15.0,-,N/A,,Scattered Clouds,170,2014-02-01 00:00:00
11:30 AM,73.4,66.2,78,29.95,6.2,South,15.0,-,N/A,,Scattered Clouds,180,2014-02-01 00:30:00
12:00 PM,74,67,73,29.96,11,South,15.0,,,,Haze,180,2014-02-01 01:00:00
12:00 PM,75.2,66.2,73,29.95,6.2,South,15.0,-,N/A,,Scattered Clouds,180,2014-02-01 01:00:00
12:30 PM,75.2,68.0,78,29.95,6.2,South,13.8,-,N/A,,Scattered Clouds,180,2014-02-01 01:30:00
1:00 PM,77,67,65,29.95,,South,13.8,,,,,170,2014-02-01 02:00:00
1:00 PM,77.0,68.0,74,29.95,6.2,South,13.8,-,N/A,,Scattered Clouds,170,2014-02-01 02:00:00
1:30 PM,78.8,66.2,65,29.92,6.2,SE,13.8,-,N/A,,Scattered Clouds,130,2014-02-01 02:30:00
2:00 PM,78,65,56,29.93,,ESE,15.0,,,,,120,2014-02-01 03:00:00
2:00 PM,78.8,64.4,61,29.92,6.2,ESE,15.0,-,N/A,,Scattered Clouds,120,2014-02-01 03:00:00
2:30 PM,78.8,66.2,65,29.92,6.2,SE,13.8,-,N/A,,Scattered Clouds,130,2014-02-01 03:30:00
3:00 PM,80,66,54,29.91,12,SE,15.0,,,,Haze,140,2014-02-01 04:00:00
3:00 PM,80.6,66.2,61,29.89,6.2,SE,15.0,-,N/A,,Scattered Clouds,140,2014-02-01 04:00:00
3:30 PM,80.6,66.2,61,29.89,6.2,SSE,13.8,-,N/A,,Partly Cloudy,150,2014-02-01 04:30:00
4:00 PM,81,65,49,29.89,,SE,13.8,,,,,130,2014-02-01 05:00:00
4:30 PM,80.6,64.4,58,29.86,6.2,ESE,12.7,-,N/A,,Partly Cloudy,110,2014-02-01 05:30:00
5:00 PM,79,63,48,29.87,,East,13.8,,,,,80,2014-02-01 06:00:00
5:00 PM,78.8,62.6,57,29.86,6.2,East,13.8,-,N/A,,Partly Cloudy,80,2014-02-01 06:00:00
5:30 PM,77.0,62.6,61,29.86,6.2,East,13.8,-,N/A,,Partly Cloudy,90,2014-02-01 06:30:00
6:00 PM,78,63,50,29.87,19,East,12.7,,,,Haze,90,2014-02-01 07:00:00
6:00 PM,77.0,62.6,61,29.86,6.2,East,12.7,-,N/A,,Partly Cloudy,90,2014-02-01 07:00:00
7:00 PM,75,64,61,29.88,,ENE,17.3,,,,,70,2014-02-01 08:00:00
7:00 PM,75.2,64.4,69,29.86,6.2,ENE,17.3,-,N/A,,Partly Cloudy,70,2014-02-01 08:00:00
7:30 PM,75.2,64.4,69,29.86,6.2,NE,16.1,-,N/A,,Partly Cloudy,50,2014-02-01 08:30:00
8:00 PM,75,65,63,29.88,,ENE,13.8,,,,,60,2014-02-01 09:00:00
8:00 PM,75.2,64.4,69,29.86,6.2,ENE,13.8,-,N/A,,Partly Cloudy,60,2014-02-01 09:00:00
8:30 PM,73.4,66.2,78,29.89,6.2,ENE,10.4,-,N/A,,Partly Cloudy,60,2014-02-01 09:30:00
9:00 PM,74,66,71,29.91,19,ENE,10.4,,,,Haze,60,2014-02-01 10:00:00
9:00 PM,73.4,66.2,78,29.89,6.2,ENE,10.4,-,N/A,,Partly Cloudy,60,2014-02-01 10:00:00
9:30 PM,73.4,66.2,78,29.92,6.2,ENE,9.2,-,N/A,,Partly Cloudy,60,2014-02-01 10:30:00
10:00 PM,74,67,72,29.93,,ENE,9.2,,,,,60,2014-02-01 11:00:00
10:00 PM,75.2,66.2,73,29.92,6.2,ENE,9.2,-,N/A,,Partly Cloudy,60,2014-02-01 11:00:00
10:30 PM,75.2,66.2,73,29.92,6.2,NE,9.2,-,N/A,,Partly Cloudy,50,2014-02-01 11:30:00
11:00 PM,74,67,72,29.93,,NE,9.2,,,,,50,2014-02-01 12:00:00
11:00 PM,73.4,66.2,78,29.92,6.2,NE,9.2,-,N/A,,Partly Cloudy,50,2014-02-01 12:00:00
11:30 PM,75.2,66.2,73,29.92,6.2,ENE,9.2,-,N/A,,Partly Cloudy,60,2014-02-01 12:30:00